GORO2: Illinois River, Gore, OK

                                SHEF ID:       GORO2     Illinois River near Gore, OK
STATION TYPE:
Regulating: Stage = 17.00, Flow = 14873

PRECIP PRECIP(A) STAGE STAGE(2) RIV-FLOW WTR-TEMP DIS-OXY BAT-LOAD
in in ft ft cfs F mg/l volt
Ccp-Rev Ccp-Rev Ccp-Rev Ccp-Rev Ccp-Rev Ccp-Rev Ccp-Rev Ccp-Rev
(America/Chicago)
04/24 00:00 0.00 ---- 7.13 7.10 226 53.96 8.30 12.74
04/24 01:00 0.00 ---- 6.87 7.05 145 54.16 8.22 12.72
04/24 02:00 0.00 ---- 6.72 7.04 108 54.25 8.11 12.71
04/24 03:00 0.00 ---- 6.63 7.05 90 54.45 8.00 12.69
04/24 04:00 0.05 ---- 6.56 7.04 76 54.73 7.93 12.67
04/24 05:00 0.82 ---- 6.63 7.04 90 55.06 8.37 12.65
04/24 06:00 0.45 ---- 6.67 7.04 98 55.13 8.54 12.63
04/24 07:00 0.04 ---- 10.17 9.79 2649 54.61 8.49 12.63
04/24 08:00 0.01 ---- 11.22 11.22 3885 53.19 8.26 12.63
04/24 09:00 0.00 ---- 11.32 11.32 4012 53.51 8.42 12.63
04/24 10:00 0.00 ---- 11.36 11.35 4063 53.24 8.49 12.70
04/24 11:00 0.00 ---- 11.41 11.41 4126 53.26 8.63 13.02
04/24 12:00 0.00 ---- 11.45 11.45 4176 53.73 8.80 13.20
04/24 13:00 0.00 ---- 11.46 11.46 4188 53.53 8.60 13.05
04/24 14:00 0.00 ---- 11.45 11.44 4176 53.44 8.53 13.10
04/24 15:00 0.00 ---- 11.43 11.43 4151 53.47 8.61 13.10
04/24 16:00 0.00 ---- 11.43 11.43 4151 53.37 8.54 13.06
04/24 17:00 0.00 ---- 11.41 11.41 4126 53.31 8.40 12.93
04/24 18:00 0.00 ---- 11.41 11.40 4126 53.31 8.36 12.83
04/24 19:00 0.00 ---- 11.40 11.40 4113 53.28 8.36 12.79
04/24 20:00 0.00 ---- 11.39 11.39 4101 53.26 8.35 12.80
04/24 21:00 0.00 ---- 11.38 11.37 4088 53.13 8.29 12.76
04/24 22:00 0.00 ---- 11.38 11.37 4088 53.17 8.25 12.73
04/24 23:00 0.00 ---- 9.55 9.63 1987 53.47 8.18 12.73
Data processed at Sat 25Apr2026 04:35 GMT

NOTICE: If you are parsing this page

Please convert to using our Data API. Starting early 2026 we will be migrating to: https://water.usace.army.mil with modern pages rendered in JavaScript. When this migration completes you will no longer be able to scrape this page! CWMSDataAPI (CDA)

Timeseries IDs (TSIDs)

TSIDs used from left to right in the data table
GORE.Precip-Inc.Total.1Hour.1Hour.Ccp-Rev
GORE.Precip-Inc Alt.Total.1Hour.1Hour.Ccp-Rev
GORE.Stage.Inst.1Hour.0.Ccp-Rev
GORE.Stage-Alt.Inst.1Hour.0.Ccp-Rev
GORE.Flow.Inst.1Hour.0.Ccp-Rev
GORE.Temp-Water.Inst.1Hour.0.Ccp-Rev
GORE.Conc-DO.Inst.1Hour.0.Ccp-Rev
GORE.Volt-Battery Load.Inst.1Hour.0.Ccp-Rev

                            

All information presented herein is the property of the government of the United States of America and may be revised or deleted at any time without prior notice. Dissemination of this information without the expressed written consent of the Public Affairs Office, Tulsa District U.S. Army Corps of Engineers is strictly prohibited. These data are gathered electronically and, as presented, have NOT undergone any form of quality control. These data are NOT guaranteed to be valid or correct.